createdAt,value
2023-05-25T00:05:30.200Z,13.57
2023-05-25T00:11:32.198Z,14.40
2023-05-25T00:17:37.283Z,13.55
2023-05-25T00:23:39.301Z,14.02
2023-05-25T00:29:41.199Z,14.70
2023-05-25T00:35:44.787Z,14.55
2023-05-25T00:41:48.422Z,13.88
2023-05-25T00:47:53.902Z,12.35
2023-05-25T00:53:55.908Z,12.18
2023-05-25T00:59:58.887Z,13.80
2023-05-25T01:06:04.231Z,12.07
2023-05-25T01:12:07.411Z,12.50
2023-05-25T01:18:09.643Z,12.93
2023-05-25T01:24:32.314Z,13.18
2023-05-25T01:30:38.082Z,12.63
2023-05-25T01:36:40.015Z,13.23
2023-05-25T01:42:42.261Z,14.63
2023-05-25T01:48:53.395Z,14.00
2023-05-25T01:55:06.284Z,15.30
2023-05-25T02:01:11.126Z,17.02
2023-05-25T02:07:13.168Z,17.73
2023-05-25T02:13:15.048Z,16.35
2023-05-25T02:19:17.040Z,16.00
2023-05-25T02:25:19.842Z,15.02
2023-05-25T02:31:21.716Z,15.40
2023-05-25T02:37:23.675Z,15.88
2023-05-25T02:43:25.615Z,16.85
2023-05-25T02:49:27.512Z,19.00
2023-05-25T02:55:30.101Z,19.83
2023-05-25T03:01:32.126Z,19.98
2023-05-25T03:07:35.743Z,19.17
2023-05-25T03:13:37.724Z,19.75
2023-05-25T03:19:39.902Z,22.33
2023-05-25T03:25:42.271Z,23.23
2023-05-25T03:31:45.198Z,23.50
2023-05-25T03:37:47.260Z,24.17
2023-05-25T03:43:49.255Z,23.85
2023-05-25T03:49:51.306Z,21.63
2023-05-25T03:55:54.185Z,19.23
2023-05-25T04:01:56.203Z,19.17
2023-05-25T04:07:58.168Z,17.45
2023-05-25T04:14:00.052Z,21.02
2023-05-25T04:20:04.875Z,16.10
2023-05-25T04:26:10.271Z,17.73
2023-05-25T04:32:17.942Z,18.30
2023-05-25T04:38:27.557Z,19.48
2023-05-25T04:44:29.995Z,20.13
2023-05-25T04:50:32.994Z,22.65
2023-05-25T04:56:35.107Z,24.67
2023-05-25T05:02:38.500Z,23.38
2023-05-25T05:08:41.813Z,23.50
2023-05-25T05:14:43.870Z,24.92
2023-05-25T05:20:46.246Z,25.58
2023-05-25T05:26:56.280Z,24.55
2023-05-25T05:33:33.246Z,25.23
2023-05-25T05:39:36.882Z,25.33
2023-05-25T05:45:40.574Z,27.20
2023-05-25T05:51:43.294Z,26.63
2023-05-25T05:57:45.325Z,28.85
2023-05-25T06:03:47.526Z,27.83
2023-05-25T06:09:49.767Z,28.50
2023-05-25T06:15:51.680Z,28.60
2023-05-25T06:21:58.024Z,27.10
2023-05-25T06:28:00.871Z,26.15
2023-05-25T06:34:03.253Z,24.65
2023-05-25T06:40:06.009Z,25.42
2023-05-25T06:46:10.513Z,24.15
2023-05-25T06:52:12.745Z,23.15
2023-05-25T06:58:14.830Z,22.52
2023-05-25T07:04:16.878Z,21.52
2023-05-25T07:10:18.822Z,20.58
2023-05-25T07:16:20.840Z,21.55
2023-05-25T07:22:32.064Z,20.80
2023-05-25T07:28:34.038Z,19.23
2023-05-25T07:34:36.025Z,20.17
2023-05-25T07:40:38.100Z,18.40
2023-05-25T07:46:40.107Z,19.08
2023-05-25T07:52:42.416Z,19.00
2023-05-25T07:58:44.602Z,18.23
2023-05-25T08:04:46.507Z,17.27
2023-05-25T08:10:51.588Z,18.00
2023-05-25T08:16:53.758Z,17.85
2023-05-25T08:22:55.811Z,17.77
2023-05-25T08:28:57.889Z,18.85
2023-05-25T08:35:03.669Z,19.27
2023-05-25T08:41:07.098Z,18.65
2023-05-25T08:47:11.098Z,17.65
2023-05-25T08:53:14.836Z,18.10
2023-05-25T08:59:36.321Z,17.02
2023-05-25T09:05:38.823Z,16.48
2023-05-25T09:11:44.180Z,15.40
2023-05-25T09:17:48.050Z,14.70
2023-05-25T09:23:50.294Z,15.88
2023-05-25T09:29:53.510Z,14.52
2023-05-25T09:35:56.227Z,15.15
2023-05-25T09:42:01.090Z,14.85
2023-05-25T09:48:03.230Z,14.45
2023-05-25T09:54:08.959Z,15.30
2023-05-25T10:00:12.296Z,14.50
2023-05-25T10:06:17.915Z,13.35
2023-05-25T10:12:23.030Z,14.07
2023-05-25T10:18:28.845Z,14.20
2023-05-25T10:24:41.146Z,14.45
2023-05-25T10:30:43.684Z,15.18
2023-05-25T10:36:46.553Z,14.30
2023-05-25T10:42:51.779Z,14.82
2023-05-25T10:48:53.858Z,14.52
2023-05-25T10:54:57.404Z,13.52
2023-05-25T11:01:05.232Z,14.57
2023-05-25T11:13:21.734Z,13.18
2023-05-25T11:19:23.654Z,12.50
2023-05-25T11:25:42.848Z,11.98
2023-05-25T11:31:45.868Z,11.23
2023-05-25T11:37:53.610Z,9.77
2023-05-25T11:43:55.701Z,10.05
2023-05-25T11:49:57.566Z,8.70
2023-05-25T11:56:07.477Z,10.35
2023-05-25T12:02:10.084Z,9.93
2023-05-25T12:08:12.158Z,9.40
2023-05-25T12:14:14.919Z,9.30
2023-05-25T12:20:17.847Z,9.77
2023-05-25T12:26:19.823Z,9.25
2023-05-25T12:32:21.906Z,8.35
2023-05-25T12:38:23.835Z,7.70
2023-05-25T12:44:33.943Z,7.95
2023-05-25T12:50:37.235Z,7.63
2023-05-25T12:56:55.659Z,9.23
2023-05-25T13:02:58.653Z,8.23
2023-05-25T13:09:00.698Z,9.25
2023-05-25T13:15:02.700Z,8.75
2023-05-25T13:21:04.720Z,8.05
2023-05-25T13:27:09.479Z,8.68
2023-05-25T13:33:11.417Z,8.48
2023-05-25T13:39:16.415Z,8.18
2023-05-25T13:45:18.562Z,6.85
2023-05-25T13:51:20.572Z,5.88
2023-05-25T13:57:22.623Z,5.47
2023-05-25T14:03:27.871Z,7.03
2023-05-25T14:09:29.847Z,6.38
2023-05-25T14:15:31.735Z,6.60
2023-05-25T14:21:33.587Z,7.03
2023-05-25T14:27:35.473Z,6.25
2023-05-25T14:33:37.527Z,6.30
2023-05-25T14:39:39.658Z,6.72
2023-05-25T14:45:41.644Z,7.43
2023-05-25T14:51:43.599Z,6.82
2023-05-25T14:57:45.773Z,6.47
2023-05-25T15:03:50.611Z,6.78
2023-05-25T15:09:54.508Z,7.75
2023-05-25T15:15:57.926Z,6.78
2023-05-25T15:22:01.392Z,6.30
2023-05-25T15:28:03.943Z,6.68
2023-05-25T15:34:08.534Z,6.07
2023-05-25T15:40:11.118Z,6.10
2023-05-25T15:46:13.234Z,5.63
2023-05-25T15:52:16.160Z,5.75
2023-05-25T15:58:20.913Z,5.55
2023-05-25T16:04:27.719Z,5.65
2023-05-25T16:10:29.616Z,5.75
2023-05-25T16:16:31.923Z,5.28
2023-05-25T16:22:37.476Z,4.68
2023-05-25T16:28:41.837Z,5.32
2023-05-25T16:34:43.783Z,4.65
2023-05-25T16:40:52.139Z,4.43
2023-05-25T16:46:54.258Z,4.70
2023-05-25T16:53:02.439Z,4.10
2023-05-25T16:59:04.523Z,4.68
2023-05-25T17:05:09.424Z,4.13
2023-05-25T17:11:12.864Z,4.28
2023-05-25T17:17:17.103Z,4.80
2023-05-25T17:23:23.199Z,3.80
2023-05-25T17:29:25.000Z,4.50
2023-05-25T17:35:28.323Z,4.03
2023-05-25T17:41:30.965Z,4.07
2023-05-25T17:47:32.908Z,3.92
2023-05-25T17:53:34.911Z,4.55
2023-05-25T17:59:36.739Z,4.30
2023-05-25T18:05:38.813Z,4.90
2023-05-25T18:11:41.125Z,3.97
2023-05-25T18:17:43.170Z,8.10
2023-05-25T18:23:45.007Z,4.32
2023-05-25T18:29:46.942Z,4.55
2023-05-25T18:35:48.819Z,4.20
2023-05-25T18:41:50.896Z,4.60
2023-05-25T18:47:52.984Z,4.35
2023-05-25T18:53:54.864Z,4.15
2023-05-25T18:59:56.709Z,3.90
2023-05-25T19:05:59.383Z,4.60
2023-05-25T19:12:01.424Z,4.78
2023-05-25T19:18:04.495Z,5.13
2023-05-25T19:24:06.934Z,4.38
2023-05-25T19:30:09.107Z,4.65
2023-05-25T19:36:11.102Z,5.28
2023-05-25T19:42:12.999Z,5.55
2023-05-25T19:48:15.035Z,5.07
2023-05-25T19:54:16.884Z,5.65
2023-05-25T20:00:26.644Z,4.90
2023-05-25T20:06:29.019Z,5.43
2023-05-25T20:12:30.955Z,5.32
2023-05-25T20:18:32.973Z,5.78
2023-05-25T20:24:35.015Z,5.40
2023-05-25T20:30:37.097Z,5.82
2023-05-25T20:36:39.058Z,5.72
2023-05-25T20:42:41.012Z,5.38
2023-05-25T20:48:43.865Z,5.18
2023-05-25T20:54:45.900Z,5.30
2023-05-25T21:00:49.790Z,5.97
2023-05-25T21:06:51.779Z,5.70
2023-05-25T21:12:53.702Z,5.53
2023-05-25T21:18:55.693Z,5.85
2023-05-25T21:24:57.975Z,6.05
2023-05-25T21:31:00.002Z,6.18
2023-05-25T21:37:02.036Z,7.55
2023-05-25T21:43:04.175Z,7.45
2023-05-25T21:49:06.364Z,7.38
2023-05-25T21:55:11.395Z,8.10
2023-05-25T22:01:13.528Z,8.63
2023-05-25T22:07:15.859Z,10.85
2023-05-25T22:13:18.866Z,8.63
2023-05-25T22:19:20.891Z,9.63
2023-05-25T22:25:22.902Z,9.98
2023-05-25T22:31:28.369Z,8.85
2023-05-25T22:37:30.503Z,8.55
2023-05-25T22:43:38.745Z,8.93
2023-05-25T22:49:44.047Z,8.70
2023-05-25T22:55:47.557Z,8.10
2023-05-25T23:01:49.585Z,8.05
2023-05-25T23:07:51.480Z,7.22
2023-05-25T23:13:54.800Z,6.97
2023-05-25T23:19:56.816Z,9.00
2023-05-25T23:25:58.872Z,7.07
2023-05-25T23:32:00.841Z,7.40
2023-05-25T23:38:03.163Z,8.35
2023-05-25T23:44:05.171Z,8.38
2023-05-25T23:50:09.992Z,6.65
2023-05-25T23:56:12.076Z,6.53
